Costa Luminosa — ICGU — position and weather

sailwx.info

Track history (hours):
 
Tides and Currents Weather Stations Pressure Air Temp Water Temp Dewpoint Dewpoint Depression Visibility Wind Speed Wind Dir Waves Ship Positions

Costa Luminosa

Last reported at 2017-Aug-20 13:31 UTC. Time now 2017-Aug-20 13:39 UTC.
Position N 45°21' E 013°01'.

Length 294 m; draft 8 m.

Type: Passenger vessel. MMSI: 247257900.

Date/timePositionNaut miles runAvg speedWind from/ knotsBaromVisibWave heightAir tempDewpointWater temp
2017-Aug-20 13:31N 45°21' E 013°01'1019.7
2017-Aug-20 13:01N 45°28' E 013°10'1019.7
2017-Aug-20 12:31N 45°34' E 013°21'1019.7
2017-Aug-20 12:01N 45°38' E 013°34'815.0
2017-Aug-20 11:30N 45°39' E 013°45'1 1.5
2017-Aug-20 10:54N 45°39' E 013°46'0 0.0
2017-Aug-20 10:24N 45°39' E 013°46'0 0.0
2017-Aug-20 09:57N 45°39' E 013°46'0 0.0
2017-Aug-20 09:26N 45°39' E 013°46'0 0.0
2017-Aug-20 08:57N 45°39' E 013°46'0 0.0
2017-Aug-20 08:27N 45°39' E 013°46'0 0.0
2017-Aug-20 08:00N 45°39' E 013°46'0 0.0
2017-Aug-20 07:30N 45°39' E 013°46'0 0.0
2017-Aug-20 07:00N 45°39' E 013°46'0 0.0
2017-Aug-20 06:27N 45°39' E 013°46'0 0.0
2017-Aug-20 06:00N 45°39' E 013°46'0 0.0
2017-Aug-20 05:27N 45°39' E 013°46'0 0.0
2017-Aug-20 05:00N 45°39' E 013°46'0 0.0
2017-Aug-20 04:30N 45°39' E 013°46'0 0.0
2017-Aug-20 04:00N 45°39' E 013°46'2 4.1
2017-Aug-20 03:30N 45°39' E 013°43'4 8.8
2017-Aug-20 03:01N 45°39' E 013°37'4 8.7
2017-Aug-20 02:30N 45°35' E 013°33'510.7
2017-Aug-20 02:00N 45°33' E 013°26'611.1
2017-Aug-20 01:31N 45°30' E 013°19'510.8
2017-Aug-20 01:01N 45°28' E 013°12'510.6
2017-Aug-20 00:31N 45°26' E 013°05'15 8.3
2017-Aug-19 22:39N 45°20' E 012°45'1 8.5
2017-Aug-19 22:31N 45°19' E 012°44'4 8.7
2017-Aug-19 22:00N 45°17' E 012°38'5 9.6
2017-Aug-19 21:31N 45°15' E 012°32'5 9.3
2017-Aug-19 21:01N 45°19' E 012°30'5 9.9
2017-Aug-19 20:30N 45°24' E 012°29'5 9.2
2017-Aug-19 20:01N 45°26' E 012°23'3 5.1
2017-Aug-19 19:31N 45°26' E 012°20'1 2.2
2017-Aug-19 19:00N 45°26' E 012°18'0 0.0
2017-Aug-19 18:29N 45°26' E 012°18'0 0.0
2017-Aug-19 17:59N 45°26' E 012°18'0 0.0
2017-Aug-19 17:29N 45°26' E 012°18'0 0.0
2017-Aug-19 16:59N 45°26' E 012°18'0 0.0
2017-Aug-19 16:29N 45°26' E 012°18'0 0.0
2017-Aug-19 15:56N 45°26' E 012°18'0 0.0
2017-Aug-19 15:29N 45°26' E 012°18'0 0.0
2017-Aug-19 14:59N 45°26' E 012°18'0 0.0
2017-Aug-19 13:53N 45°26' E 012°18'0 0.0
2017-Aug-19 13:29N 45°26' E 012°18'0 0.0
2017-Aug-19 12:59N 45°26' E 012°18'0 0.0
2017-Aug-19 12:29N 45°26' E 012°18'0 0.0
2017-Aug-19 11:59N 45°26' E 012°18'0 0.0
2017-Aug-19 11:29N 45°26' E 012°18'0 0.0
2017-Aug-19 10:59N 45°26' E 012°18'0 0.0
2017-Aug-19 10:29N 45°26' E 012°18'0 0.0
2017-Aug-19 09:59N 45°26' E 012°18'0 0.0
2017-Aug-19 09:29N 45°26' E 012°18'0 0.0
2017-Aug-19 08:59N 45°26' E 012°18'0 0.0
2017-Aug-19 08:29N 45°26' E 012°18'0 0.0
2017-Aug-19 07:59N 45°26' E 012°18'0 0.0
2017-Aug-19 07:29N 45°26' E 012°18'0 0.0
2017-Aug-19 06:56N 45°26' E 012°18'0 0.0
2017-Aug-19 06:30N 45°26' E 012°18'0 0.9
2017-Aug-19 06:01N 45°26' E 012°19'3 5.0
2017-Aug-19 05:30N 45°26' E 012°23'4 8.0
2017-Aug-19 05:00N 45°24' E 012°28'612.2
2017-Aug-19 04:30N 45°21' E 012°35'917.4
2017-Aug-19 04:00N 45°15' E 012°44'918.0
2017-Aug-19 03:30N 45°08' E 012°53'917.8
2017-Aug-19 03:00N 45°03' E 013°03'917.6
2017-Aug-19 02:30N 44°59' E 013°14'917.4
2017-Aug-19 02:00N 44°54' E 013°24'917.7
2017-Aug-19 01:30N 44°46' E 013°31'917.8
2017-Aug-19 01:00N 44°39' E 013°37'1019.3
2017-Aug-19 00:30N 44°31' E 013°45'918.8
2017-Aug-19 00:00N 44°23' E 013°53'919.0
2017-Aug-18 23:30N 44°15' E 014°00'1019.1
2017-Aug-18 23:00N 44°08' E 014°08'918.8
2017-Aug-18 22:30N 44°01' E 014°17'918.8
2017-Aug-18 22:00N 43°55' E 014°27'918.7
2017-Aug-18 21:30N 43°49' E 014°37'228 8.1
2017-Aug-17 17:32N 41°07' E 018°15'010.8
2017-Aug-17 17:30N 41°07' E 018°15'610.9
2017-Aug-17 17:00N 41°03' E 018°20'101 9.6
2017-Aug-17 06:32N 39°33' E 019°19'0 9.6
2017-Aug-17 06:30N 39°33' E 019°19'11 9.8
2017-Aug-17 05:23N 39°25' E 019°29'4 9.9
2017-Aug-17 05:00N 39°22' E 019°31'5 9.8
2017-Aug-17 04:30N 39°17' E 019°34'5 9.7
2017-Aug-17 04:00N 39°13' E 019°37'6 9.9
2017-Aug-17 03:26N 39°08' E 019°39'410.1
2017-Aug-17 03:00N 39°04' E 019°42'510.1
2017-Aug-17 02:30N 38°59' E 019°45'510.1
2017-Aug-17 02:00N 38°55' E 019°47'5 9.7
2017-Aug-17 01:30N 38°50' E 019°50'4 8.9
2017-Aug-17 01:00N 38°46' E 019°53'5 9.4
2017-Aug-17 00:30N 38°42' E 019°55'5 9.2
2017-Aug-17 00:00N 38°38' E 019°58'5 9.4
2017-Aug-16 23:28N 38°34' E 020°01'4 9.5
2017-Aug-16 23:00N 38°30' E 020°04'5 9.7
2017-Aug-16 22:30N 38°25' E 020°07'  
2017-Aug-13 18:13N 43°54' E 014°15'1020.8
2017-Aug-13 17:43N 44°02' E 014°07'520.8
2017-Aug-13 17:30N 44°05' E 014°03'1020.9
2017-Aug-13 17:00N 44°14' E 013°55'1121.1
2017-Aug-13 16:30N 44°23' E 013°47'1121.6
2017-Aug-13 16:00N 44°32' E 013°39'1121.8
2017-Aug-13 15:30N 44°41' E 013°30'1121.2
2017-Aug-13 15:00N 44°50' E 013°22'1020.9
2017-Aug-13 14:31N 44°59' E 013°14'1020.7
2017-Aug-13 14:00N 45°07' E 013°06'1020.5
2017-Aug-13 13:30N 45°17' E 013°02'918.6
2017-Aug-13 13:00N 45°26' E 013°08'1019.8
2017-Aug-13 12:30N 45°33' E 013°17'1019.6
2017-Aug-13 12:00N 45°37' E 013°30'917.7
2017-Aug-13 11:30N 45°39' E 013°42'2 4.8
2017-Aug-13 11:00N 45°39' E 013°46'0 0.0
2017-Aug-13 10:30N 45°39' E 013°46'0 0.0
2017-Aug-13 10:00N 45°39' E 013°46'0 0.0
2017-Aug-13 09:30N 45°39' E 013°46'0 0.0
2017-Aug-13 08:57N 45°39' E 013°46'0 0.0
2017-Aug-13 08:30N 45°39' E 013°46'0 0.0
2017-Aug-13 08:00N 45°39' E 013°46'0 0.0
2017-Aug-13 07:30N 45°39' E 013°46'0 0.0
2017-Aug-13 07:00N 45°39' E 013°46'0 0.0
2017-Aug-13 06:30N 45°39' E 013°46'0 0.0
2017-Aug-13 06:00N 45°39' E 013°46'0 0.0
2017-Aug-13 05:24N 45°39' E 013°46'0 0.0
2017-Aug-13 04:57N 45°39' E 013°46'0 0.2
2017-Aug-13 04:31N 45°39' E 013°46'3 6.8
2017-Aug-13 04:00N 45°39' E 013°41'5 9.4
2017-Aug-13 03:30N 45°36' E 013°35'5 9.7
2017-Aug-13 03:00N 45°34' E 013°30'5 9.6
2017-Aug-13 02:31N 45°31' E 013°24'5 9.6
2017-Aug-13 02:01N 45°29' E 013°17'5 9.6
2017-Aug-13 01:30N 45°27' E 013°11'5 9.5
2017-Aug-13 01:00N 45°26' E 013°05'5 9.6
2017-Aug-13 00:30N 45°24' E 012°58'5 9.3
2017-Aug-13 00:00N 45°22' E 012°53'5 9.5
2017-Aug-12 23:30N 45°17' E 012°50'5 9.8
2017-Aug-12 23:00N 45°13' E 012°46'510.0
2017-Aug-12 22:30N 45°09' E 012°42'4 8.5
2017-Aug-12 22:00N 45°09' E 012°36'5 9.7
2017-Aug-12 21:30N 45°12' E 012°30'510.1
2017-Aug-12 21:01N 45°17' E 012°30'510.4
2017-Aug-12 20:30N 45°22' E 012°30'5 9.6
2017-Aug-12 20:00N 45°26' E 012°25'3 5.5
2017-Aug-12 19:30N 45°26' E 012°21'2 3.5
2017-Aug-12 19:01N 45°26' E 012°18'0 0.1
2017-Aug-12 18:29N 45°26' E 012°19'0 0.0
2017-Aug-12 17:59N 45°26' E 012°19'0 0.0
2017-Aug-12 17:29N 45°26' E 012°19'0 0.0
2017-Aug-12 16:59N 45°26' E 012°19'0 0.0
2017-Aug-12 16:29N 45°26' E 012°19'0 0.0
2017-Aug-12 15:59N 45°26' E 012°19'0 0.0
2017-Aug-12 15:29N 45°26' E 012°19'0 0.0
2017-Aug-12 14:59N 45°26' E 012°19'0 0.0
2017-Aug-12 14:26N 45°26' E 012°19'0 0.0
2017-Aug-12 13:59N 45°26' E 012°19'0 0.0
2017-Aug-12 13:29N 45°26' E 012°19'0 0.0
2017-Aug-12 12:59N 45°26' E 012°19'0 0.0
2017-Aug-12 12:29N 45°26' E 012°19'0 0.0
2017-Aug-12 11:59N 45°26' E 012°19'0 0.0
2017-Aug-12 11:29N 45°26' E 012°19'0 0.0
2017-Aug-12 10:59N 45°26' E 012°19'0 0.0
2017-Aug-12 10:29N 45°26' E 012°19'0 0.0
2017-Aug-12 09:59N 45°26' E 012°19'0 0.0
2017-Aug-12 09:29N 45°26' E 012°19'0 0.0
2017-Aug-12 08:59N 45°26' E 012°19'0 0.0
2017-Aug-12 08:29N 45°26' E 012°19'0 0.0
2017-Aug-12 07:59N 45°26' E 012°19'0 0.0
2017-Aug-12 07:29N 45°26' E 012°19'0 0.0
2017-Aug-12 06:59N 45°26' E 012°19'0 0.0
2017-Aug-12 06:29N 45°26' E 012°19'1 2.1
2017-Aug-12 06:00N 45°26' E 012°20'2 4.8
2017-Aug-12 05:30N 45°26' E 012°23'5 9.3
2017-Aug-12 05:00N 45°24' E 012°29'815.7
2017-Aug-12 04:30N 45°19' E 012°38'918.7
2017-Aug-12 04:00N 45°12' E 012°47'918.7
2017-Aug-12 03:30N 45°06' E 012°57'918.7
2017-Aug-12 03:00N 45°01' E 013°08'918.5
2017-Aug-12 02:30N 44°57' E 013°19'918.0
2017-Aug-12 02:00N 44°49' E 013°27'918.0
2017-Aug-12 01:30N 44°42' E 013°34'917.9
2017-Aug-12 01:00N 44°35' E 013°41'917.6
2017-Aug-12 00:30N 44°27' E 013°48'917.6
2017-Aug-12 00:00N 44°20' E 013°55'917.9
2017-Aug-11 23:30N 44°13' E 014°02'1018.0
2017-Aug-11 22:56N 44°04' E 014°11'  
Track history (hours):
 
Tides and Currents Weather Stations Pressure Air Temp Water Temp Dewpoint Dewpoint Depression Visibility Wind Speed Wind Dir Waves Ship Positions

Costa Luminosa

Last reported at 2017-Aug-20 13:31 UTC. Time now 2017-Aug-20 13:39 UTC.
Position N 45°21' E 013°01'.

Length 294 m; draft 8 m.

Type: Passenger vessel. MMSI: 247257900.

Date/timePositionNaut miles runAvg speedWind from/ knotsBaromVisibWave heightAir tempDewpointWater temp
2017-Aug-20 13:31N 45°21' E 013°01'1019.7
2017-Aug-20 13:01N 45°28' E 013°10'1019.7
2017-Aug-20 12:31N 45°34' E 013°21'1019.7
2017-Aug-20 12:01N 45°38' E 013°34'815.0
2017-Aug-20 11:30N 45°39' E 013°45'1 1.5
2017-Aug-20 10:54N 45°39' E 013°46'0 0.0
2017-Aug-20 10:24N 45°39' E 013°46'0 0.0
2017-Aug-20 09:57N 45°39' E 013°46'0 0.0
2017-Aug-20 09:26N 45°39' E 013°46'0 0.0
2017-Aug-20 08:57N 45°39' E 013°46'0 0.0
2017-Aug-20 08:27N 45°39' E 013°46'0 0.0
2017-Aug-20 08:00N 45°39' E 013°46'0 0.0
2017-Aug-20 07:30N 45°39' E 013°46'0 0.0
2017-Aug-20 07:00N 45°39' E 013°46'0 0.0
2017-Aug-20 06:27N 45°39' E 013°46'0 0.0
2017-Aug-20 06:00N 45°39' E 013°46'0 0.0
2017-Aug-20 05:27N 45°39' E 013°46'0 0.0
2017-Aug-20 05:00N 45°39' E 013°46'0 0.0
2017-Aug-20 04:30N 45°39' E 013°46'0 0.0
2017-Aug-20 04:00N 45°39' E 013°46'2 4.1
2017-Aug-20 03:30N 45°39' E 013°43'4 8.8
2017-Aug-20 03:01N 45°39' E 013°37'4 8.7
2017-Aug-20 02:30N 45°35' E 013°33'510.7
2017-Aug-20 02:00N 45°33' E 013°26'611.1
2017-Aug-20 01:31N 45°30' E 013°19'510.8
2017-Aug-20 01:01N 45°28' E 013°12'510.6
2017-Aug-20 00:31N 45°26' E 013°05'15 8.3
2017-Aug-19 22:39N 45°20' E 012°45'1 8.5
2017-Aug-19 22:31N 45°19' E 012°44'4 8.7
2017-Aug-19 22:00N 45°17' E 012°38'5 9.6
2017-Aug-19 21:31N 45°15' E 012°32'5 9.3
2017-Aug-19 21:01N 45°19' E 012°30'5 9.9
2017-Aug-19 20:30N 45°24' E 012°29'5 9.2
2017-Aug-19 20:01N 45°26' E 012°23'3 5.1
2017-Aug-19 19:31N 45°26' E 012°20'1 2.2
2017-Aug-19 19:00N 45°26' E 012°18'0 0.0
2017-Aug-19 18:29N 45°26' E 012°18'0 0.0
2017-Aug-19 17:59N 45°26' E 012°18'0 0.0
2017-Aug-19 17:29N 45°26' E 012°18'0 0.0
2017-Aug-19 16:59N 45°26' E 012°18'0 0.0
2017-Aug-19 16:29N 45°26' E 012°18'0 0.0
2017-Aug-19 15:56N 45°26' E 012°18'0 0.0
2017-Aug-19 15:29N 45°26' E 012°18'0 0.0
2017-Aug-19 14:59N 45°26' E 012°18'0 0.0
2017-Aug-19 13:53N 45°26' E 012°18'0 0.0
2017-Aug-19 13:29N 45°26' E 012°18'0 0.0
2017-Aug-19 12:59N 45°26' E 012°18'0 0.0
2017-Aug-19 12:29N 45°26' E 012°18'0 0.0
2017-Aug-19 11:59N 45°26' E 012°18'0 0.0
2017-Aug-19 11:29N 45°26' E 012°18'0 0.0
2017-Aug-19 10:59N 45°26' E 012°18'0 0.0
2017-Aug-19 10:29N 45°26' E 012°18'0 0.0
2017-Aug-19 09:59N 45°26' E 012°18'0 0.0
2017-Aug-19 09:29N 45°26' E 012°18'0 0.0
2017-Aug-19 08:59N 45°26' E 012°18'0 0.0
2017-Aug-19 08:29N 45°26' E 012°18'0 0.0
2017-Aug-19 07:59N 45°26' E 012°18'0 0.0
2017-Aug-19 07:29N 45°26' E 012°18'0 0.0
2017-Aug-19 06:56N 45°26' E 012°18'0 0.0
2017-Aug-19 06:30N 45°26' E 012°18'0 0.9
2017-Aug-19 06:01N 45°26' E 012°19'3 5.0
2017-Aug-19 05:30N 45°26' E 012°23'4 8.0
2017-Aug-19 05:00N 45°24' E 012°28'612.2
2017-Aug-19 04:30N 45°21' E 012°35'917.4
2017-Aug-19 04:00N 45°15' E 012°44'918.0
2017-Aug-19 03:30N 45°08' E 012°53'917.8
2017-Aug-19 03:00N 45°03' E 013°03'917.6
2017-Aug-19 02:30N 44°59' E 013°14'917.4
2017-Aug-19 02:00N 44°54' E 013°24'917.7
2017-Aug-19 01:30N 44°46' E 013°31'917.8
2017-Aug-19 01:00N 44°39' E 013°37'1019.3
2017-Aug-19 00:30N 44°31' E 013°45'918.8
2017-Aug-19 00:00N 44°23' E 013°53'919.0
2017-Aug-18 23:30N 44°15' E 014°00'1019.1
2017-Aug-18 23:00N 44°08' E 014°08'918.8
2017-Aug-18 22:30N 44°01' E 014°17'918.8
2017-Aug-18 22:00N 43°55' E 014°27'918.7
2017-Aug-18 21:30N 43°49' E 014°37'228 8.1
2017-Aug-17 17:32N 41°07' E 018°15'010.8
2017-Aug-17 17:30N 41°07' E 018°15'610.9
2017-Aug-17 17:00N 41°03' E 018°20'101 9.6
2017-Aug-17 06:32N 39°33' E 019°19'0 9.6
2017-Aug-17 06:30N 39°33' E 019°19'11 9.8
2017-Aug-17 05:23N 39°25' E 019°29'4 9.9
2017-Aug-17 05:00N 39°22' E 019°31'5 9.8
2017-Aug-17 04:30N 39°17' E 019°34'5 9.7
2017-Aug-17 04:00N 39°13' E 019°37'6 9.9
2017-Aug-17 03:26N 39°08' E 019°39'410.1
2017-Aug-17 03:00N 39°04' E 019°42'510.1
2017-Aug-17 02:30N 38°59' E 019°45'510.1
2017-Aug-17 02:00N 38°55' E 019°47'5 9.7
2017-Aug-17 01:30N 38°50' E 019°50'4 8.9
2017-Aug-17 01:00N 38°46' E 019°53'5 9.4
2017-Aug-17 00:30N 38°42' E 019°55'5 9.2
2017-Aug-17 00:00N 38°38' E 019°58'5 9.4
2017-Aug-16 23:28N 38°34' E 020°01'4 9.5
2017-Aug-16 23:00N 38°30' E 020°04'5 9.7
2017-Aug-16 22:30N 38°25' E 020°07'  
2017-Aug-13 18:13N 43°54' E 014°15'1020.8
2017-Aug-13 17:43N 44°02' E 014°07'520.8
2017-Aug-13 17:30N 44°05' E 014°03'1020.9
2017-Aug-13 17:00N 44°14' E 013°55'1121.1
2017-Aug-13 16:30N 44°23' E 013°47'1121.6
2017-Aug-13 16:00N 44°32' E 013°39'1121.8
2017-Aug-13 15:30N 44°41' E 013°30'1121.2
2017-Aug-13 15:00N 44°50' E 013°22'1020.9
2017-Aug-13 14:31N 44°59' E 013°14'1020.7
2017-Aug-13 14:00N 45°07' E 013°06'1020.5
2017-Aug-13 13:30N 45°17' E 013°02'918.6
2017-Aug-13 13:00N 45°26' E 013°08'1019.8
2017-Aug-13 12:30N 45°33' E 013°17'1019.6
2017-Aug-13 12:00N 45°37' E 013°30'917.7
2017-Aug-13 11:30N 45°39' E 013°42'2 4.8
2017-Aug-13 11:00N 45°39' E 013°46'0 0.0
2017-Aug-13 10:30N 45°39' E 013°46'0 0.0
2017-Aug-13 10:00N 45°39' E 013°46'0 0.0
2017-Aug-13 09:30N 45°39' E 013°46'0 0.0
2017-Aug-13 08:57N 45°39' E 013°46'0 0.0
2017-Aug-13 08:30N 45°39' E 013°46'0 0.0
2017-Aug-13 08:00N 45°39' E 013°46'0 0.0
2017-Aug-13 07:30N 45°39' E 013°46'0 0.0
2017-Aug-13 07:00N 45°39' E 013°46'0 0.0
2017-Aug-13 06:30N 45°39' E 013°46'0 0.0
2017-Aug-13 06:00N 45°39' E 013°46'0 0.0
2017-Aug-13 05:24N 45°39' E 013°46'0 0.0
2017-Aug-13 04:57N 45°39' E 013°46'0 0.2
2017-Aug-13 04:31N 45°39' E 013°46'3 6.8
2017-Aug-13 04:00N 45°39' E 013°41'5 9.4
2017-Aug-13 03:30N 45°36' E 013°35'5 9.7
2017-Aug-13 03:00N 45°34' E 013°30'5 9.6
2017-Aug-13 02:31N 45°31' E 013°24'5 9.6
2017-Aug-13 02:01N 45°29' E 013°17'5 9.6
2017-Aug-13 01:30N 45°27' E 013°11'5 9.5
2017-Aug-13 01:00N 45°26' E 013°05'5 9.6
2017-Aug-13 00:30N 45°24' E 012°58'5 9.3
2017-Aug-13 00:00N 45°22' E 012°53'5 9.5
2017-Aug-12 23:30N 45°17' E 012°50'5 9.8
2017-Aug-12 23:00N 45°13' E 012°46'510.0
2017-Aug-12 22:30N 45°09' E 012°42'4 8.5
2017-Aug-12 22:00N 45°09' E 012°36'5 9.7
2017-Aug-12 21:30N 45°12' E 012°30'510.1
2017-Aug-12 21:01N 45°17' E 012°30'510.4
2017-Aug-12 20:30N 45°22' E 012°30'5 9.6
2017-Aug-12 20:00N 45°26' E 012°25'3 5.5
2017-Aug-12 19:30N 45°26' E 012°21'2 3.5
2017-Aug-12 19:01N 45°26' E 012°18'0 0.1
2017-Aug-12 18:29N 45°26' E 012°19'0 0.0
2017-Aug-12 17:59N 45°26' E 012°19'0 0.0
2017-Aug-12 17:29N 45°26' E 012°19'0 0.0
2017-Aug-12 16:59N 45°26' E 012°19'0 0.0
2017-Aug-12 16:29N 45°26' E 012°19'0 0.0
2017-Aug-12 15:59N 45°26' E 012°19'0 0.0
2017-Aug-12 15:29N 45°26' E 012°19'0 0.0
2017-Aug-12 14:59N 45°26' E 012°19'0 0.0
2017-Aug-12 14:26N 45°26' E 012°19'0 0.0
2017-Aug-12 13:59N 45°26' E 012°19'0 0.0
2017-Aug-12 13:29N 45°26' E 012°19'0 0.0
2017-Aug-12 12:59N 45°26' E 012°19'0 0.0
2017-Aug-12 12:29N 45°26' E 012°19'0 0.0
2017-Aug-12 11:59N 45°26' E 012°19'0 0.0
2017-Aug-12 11:29N 45°26' E 012°19'0 0.0
2017-Aug-12 10:59N 45°26' E 012°19'0 0.0
2017-Aug-12 10:29N 45°26' E 012°19'0 0.0
2017-Aug-12 09:59N 45°26' E 012°19'0 0.0
2017-Aug-12 09:29N 45°26' E 012°19'0 0.0
2017-Aug-12 08:59N 45°26' E 012°19'0 0.0
2017-Aug-12 08:29N 45°26' E 012°19'0 0.0
2017-Aug-12 07:59N 45°26' E 012°19'0 0.0
2017-Aug-12 07:29N 45°26' E 012°19'0 0.0
2017-Aug-12 06:59N 45°26' E 012°19'0 0.0
2017-Aug-12 06:29N 45°26' E 012°19'1 2.1
2017-Aug-12 06:00N 45°26' E 012°20'2 4.8
2017-Aug-12 05:30N 45°26' E 012°23'5 9.3
2017-Aug-12 05:00N 45°24' E 012°29'815.7
2017-Aug-12 04:30N 45°19' E 012°38'918.7
2017-Aug-12 04:00N 45°12' E 012°47'918.7
2017-Aug-12 03:30N 45°06' E 012°57'918.7
2017-Aug-12 03:00N 45°01' E 013°08'918.5
2017-Aug-12 02:30N 44°57' E 013°19'918.0
2017-Aug-12 02:00N 44°49' E 013°27'918.0
2017-Aug-12 01:30N 44°42' E 013°34'917.9
2017-Aug-12 01:00N 44°35' E 013°41'917.6
2017-Aug-12 00:30N 44°27' E 013°48'917.6
2017-Aug-12 00:00N 44°20' E 013°55'917.9
2017-Aug-11 23:30N 44°13' E 014°02'1018.0
2017-Aug-11 22:56N 44°04' E 014°11'  

Dump ship's entire track history